sensor_id;sensor_type;location;lat;lon;timestamp;pressure;altitude;pressure_sealevel;temperature;humidity
71805;BME280;59654;52.216;5.616;2023-07-30T00:00:29;100611.09;;;15.24;81.39
71805;BME280;59654;52.216;5.616;2023-07-30T00:01:00;100608.41;;;15.24;81.92
71805;BME280;59654;52.216;5.616;2023-07-30T00:01:31;100611.97;;;15.24;81.26
71805;BME280;59654;52.216;5.616;2023-07-30T00:02:01;100614.03;;;15.19;81.78
71805;BME280;59654;52.216;5.616;2023-07-30T00:02:32;100607.25;;;15.13;81.93
71805;BME280;59654;52.216;5.616;2023-07-30T00:03:03;100612.63;;;15.13;81.67
71805;BME280;59654;52.216;5.616;2023-07-30T00:03:34;100618.94;;;15.12;82.05
71805;BME280;59654;52.216;5.616;2023-07-30T00:04:05;100617.41;;;15.08;81.70
71805;BME280;59654;52.216;5.616;2023-07-30T00:04:36;100604.66;;;15.12;81.72
71805;BME280;59654;52.216;5.616;2023-07-30T00:05:07;100605.97;;;15.05;82.55
71805;BME280;59654;52.216;5.616;2023-07-30T00:05:38;100615.84;;;15.04;81.95
71805;BME280;59654;52.216;5.616;2023-07-30T00:06:08;100611.56;;;15.02;82.54
71805;BME280;59654;52.216;5.616;2023-07-30T00:06:39;100613.38;;;15.01;82.89
71805;BME280;59654;52.216;5.616;2023-07-30T00:07:10;100609.03;;;14.99;82.24
71805;BME280;59654;52.216;5.616;2023-07-30T00:07:41;100613.72;;;14.95;82.32
71805;BME280;59654;52.216;5.616;2023-07-30T00:08:12;100606.91;;;14.90;82.67
71805;BME280;59654;52.216;5.616;2023-07-30T00:08:43;100612.34;;;14.88;82.75
71805;BME280;59654;52.216;5.616;2023-07-30T00:09:14;100609.88;;;14.85;82.64
71805;BME280;59654;52.216;5.616;2023-07-30T00:09:44;100616.00;;;14.87;82.99
71805;BME280;59654;52.216;5.616;2023-07-30T00:10:15;100611.22;;;14.92;82.44
71805;BME280;59654;52.216;5.616;2023-07-30T00:10:46;100610.28;;;14.93;82.58
71805;BME280;59654;52.216;5.616;2023-07-30T00:11:17;100612.78;;;14.96;82.42
71805;BME280;59654;52.216;5.616;2023-07-30T00:11:47;100610.97;;;14.97;83.19
71805;BME280;59654;52.216;5.616;2023-07-30T00:12:18;100615.47;;;14.96;82.61
71805;BME280;59654;52.216;5.616;2023-07-30T00:12:49;100611.03;;;14.95;82.94
71805;BME280;59654;52.216;5.616;2023-07-30T00:13:20;100619.09;;;14.95;83.04
71805;BME280;59654;52.216;5.616;2023-07-30T00:13:51;100620.06;;;14.94;82.24
71805;BME280;59654;52.216;5.616;2023-07-30T00:14:21;100628.28;;;14.91;83.17
71805;BME280;59654;52.216;5.616;2023-07-30T00:14:52;100614.00;;;14.91;83.17
71805;BME280;59654;52.216;5.616;2023-07-30T00:15:23;100622.91;;;14.91;83.00
71805;BME280;59654;52.216;5.616;2023-07-30T00:15:54;100622.31;;;14.86;82.54
71805;BME280;59654;52.216;5.616;2023-07-30T00:16:27;100624.81;;;14.89;82.52
71805;BME280;59654;52.216;5.616;2023-07-30T00:16:58;100623.78;;;14.92;82.32
71805;BME280;59654;52.216;5.616;2023-07-30T00:17:29;100628.19;;;14.93;82.95
71805;BME280;59654;52.216;5.616;2023-07-30T00:18:00;100623.88;;;14.90;82.25
71805;BME280;59654;52.216;5.616;2023-07-30T00:18:30;100625.50;;;14.93;81.93
71805;BME280;59654;52.216;5.616;2023-07-30T00:19:01;100621.88;;;14.94;81.88
71805;BME280;59654;52.216;5.616;2023-07-30T00:19:32;100622.16;;;14.89;82.52
71805;BME280;59654;52.216;5.616;2023-07-30T00:20:04;100624.75;;;14.91;82.12
71805;BME280;59654;52.216;5.616;2023-07-30T00:20:35;100624.81;;;14.89;82.71
71805;BME280;59654;52.216;5.616;2023-07-30T00:21:06;100622.16;;;14.89;82.07
71805;BME280;59654;52.216;5.616;2023-07-30T00:21:37;100626.66;;;14.89;82.46
71805;BME280;59654;52.216;5.616;2023-07-30T00:22:07;100628.28;;;14.91;82.82
71805;BME280;59654;52.216;5.616;2023-07-30T00:22:38;100621.97;;;14.92;83.00
71805;BME280;59654;52.216;5.616;2023-07-30T00:23:09;100627.59;;;14.88;82.52
71805;BME280;59654;52.216;5.616;2023-07-30T00:23:40;100622.88;;;14.77;82.83
71805;BME280;59654;52.216;5.616;2023-07-30T00:24:11;100624.59;;;14.78;82.48
71805;BME280;59654;52.216;5.616;2023-07-30T00:24:42;100622.28;;;14.72;82.95
71805;BME280;59654;52.216;5.616;2023-07-30T00:25:12;100625.56;;;14.77;82.58
71805;BME280;59654;52.216;5.616;2023-07-30T00:25:43;100618.63;;;14.73;83.24
71805;BME280;59654;52.216;5.616;2023-07-30T00:26:14;100621.16;;;14.76;83.10
71805;BME280;59654;52.216;5.616;2023-07-30T00:26:45;100617.50;;;14.77;83.12
71805;BME280;59654;52.216;5.616;2023-07-30T00:27:16;100627.28;;;14.78;82.87
71805;BME280;59654;52.216;5.616;2023-07-30T00:27:46;100617.34;;;14.80;83.03
71805;BME280;59654;52.216;5.616;2023-07-30T00:28:17;100620.78;;;14.82;82.79
71805;BME280;59654;52.216;5.616;2023-07-30T00:28:48;100621.66;;;14.82;82.85
71805;BME280;59654;52.216;5.616;2023-07-30T00:29:19;100627.97;;;14.81;83.00
71805;BME280;59654;52.216;5.616;2023-07-30T00:29:50;100617.16;;;14.83;82.75
71805;BME280;59654;52.216;5.616;2023-07-30T00:30:20;100623.41;;;14.83;82.62
71805;BME280;59654;52.216;5.616;2023-07-30T00:30:51;100627.91;;;14.83;83.05
71805;BME280;59654;52.216;5.616;2023-07-30T00:31:22;100626.00;;;14.85;82.67
71805;BME280;59654;52.216;5.616;2023-07-30T00:31:54;100622.31;;;14.86;83.11
71805;BME280;59654;52.216;5.616;2023-07-30T00:32:25;100619.06;;;14.81;83.70
71805;BME280;59654;52.216;5.616;2023-07-30T00:32:55;100621.66;;;14.82;83.34
71805;BME280;59654;52.216;5.616;2023-07-30T00:33:26;100626.84;;;14.86;82.94
71805;BME280;59654;52.216;5.616;2023-07-30T00:33:57;100625.00;;;14.86;82.78
71805;BME280;59654;52.216;5.616;2023-07-30T00:34:28;100622.31;;;14.86;82.80
71805;BME280;59654;52.216;5.616;2023-07-30T00:34:59;100625.00;;;14.86;83.57
71805;BME280;59654;52.216;5.616;2023-07-30T00:35:30;100624.44;;;14.81;83.43
71805;BME280;59654;52.216;5.616;2023-07-30T00:36:00;100620.78;;;14.82;83.30
71805;BME280;59654;52.216;5.616;2023-07-30T00:36:31;100626.94;;;14.84;83.40
71805;BME280;59654;52.216;5.616;2023-07-30T00:37:02;100620.78;;;14.82;82.95
71805;BME280;59654;52.216;5.616;2023-07-30T00:37:33;100618.88;;;14.84;83.43
71805;BME280;59654;52.216;5.616;2023-07-30T00:38:03;100625.00;;;14.86;82.42
71805;BME280;59654;52.216;5.616;2023-07-30T00:38:34;100618.19;;;14.80;83.40
71805;BME280;59654;52.216;5.616;2023-07-30T00:39:05;100617.34;;;14.80;83.53
71805;BME280;59654;52.216;5.616;2023-07-30T00:39:36;100616.28;;;14.82;82.54
71805;BME280;59654;52.216;5.616;2023-07-30T00:40:07;100618.13;;;14.82;83.25
71805;BME280;59654;52.216;5.616;2023-07-30T00:40:41;100618.19;;;14.80;82.45
71805;BME280;59654;52.216;5.616;2023-07-30T00:41:12;100621.66;;;14.82;83.57
71805;BME280;59654;52.216;5.616;2023-07-30T00:41:42;100619.75;;;14.85;83.12
71805;BME280;59654;52.216;5.616;2023-07-30T00:42:13;100619.94;;;14.81;82.95
71805;BME280;59654;52.216;5.616;2023-07-30T00:42:45;100619.06;;;14.81;83.06
71805;BME280;59654;52.216;5.616;2023-07-30T00:43:17;100614.56;;;14.81;82.60
71805;BME280;59654;52.216;5.616;2023-07-30T00:43:48;100617.34;;;14.80;82.57
71805;BME280;59654;52.216;5.616;2023-07-30T00:44:19;100614.56;;;14.81;83.64
71805;BME280;59654;52.216;5.616;2023-07-30T00:44:50;100616.38;;;14.81;83.71
71805;BME280;59654;52.216;5.616;2023-07-30T00:45:21;100608.34;;;14.81;83.43
71805;BME280;59654;52.216;5.616;2023-07-30T00:45:52;100617.25;;;14.81;84.05
71805;BME280;59654;52.216;5.616;2023-07-30T00:46:23;100611.88;;;14.81;83.12
71805;BME280;59654;52.216;5.616;2023-07-30T00:46:54;100614.47;;;14.83;83.32
71805;BME280;59654;52.216;5.616;2023-07-30T00:47:26;100611.78;;;14.83;82.78
71805;BME280;59654;52.216;5.616;2023-07-30T00:47:57;100609.97;;;14.83;82.91
71805;BME280;59654;52.216;5.616;2023-07-30T00:48:28;100615.25;;;14.85;82.99
71805;BME280;59654;52.216;5.616;2023-07-30T00:48:59;100617.25;;;14.81;83.27
71805;BME280;59654;52.216;5.616;2023-07-30T00:49:30;100617.25;;;14.81;83.25
71805;BME280;59654;52.216;5.616;2023-07-30T00:50:02;100613.59;;;14.82;83.29
71805;BME280;59654;52.216;5.616;2023-07-30T00:50:33;100620.63;;;14.85;83.09
71805;BME280;59654;52.216;5.616;2023-07-30T00:51:04;100626.56;;;14.90;83.63
71805;BME280;59654;52.216;5.616;2023-07-30T00:51:36;100621.28;;;14.89;83.38
71805;BME280;59654;52.216;5.616;2023-07-30T00:52:08;100615.91;;;14.89;83.87
71805;BME280;59654;52.216;5.616;2023-07-30T00:52:39;100620.31;;;14.90;83.23
71805;BME280;59654;52.216;5.616;2023-07-30T00:53:13;100617.63;;;14.90;83.59
71805;BME280;59654;52.216;5.616;2023-07-30T00:53:46;100623.00;;;14.90;83.26
71805;BME280;59654;52.216;5.616;2023-07-30T00:54:17;100614.94;;;14.90;82.91
71805;BME280;59654;52.216;5.616;2023-07-30T00:54:49;100620.63;;;14.85;82.87
71805;BME280;59654;52.216;5.616;2023-07-30T00:55:20;100620.41;;;14.88;82.60
71805;BME280;59654;52.216;5.616;2023-07-30T00:55:50;100623.09;;;14.88;82.53
71805;BME280;59654;52.216;5.616;2023-07-30T00:56:22;100615.34;;;14.83;83.06
71805;BME280;59654;52.216;5.616;2023-07-30T00:56:53;100619.75;;;14.85;83.49
71805;BME280;59654;52.216;5.616;2023-07-30T00:57:26;100622.69;;;14.80;83.05
71805;BME280;59654;52.216;5.616;2023-07-30T00:57:57;100614.56;;;14.81;83.41
71805;BME280;59654;52.216;5.616;2023-07-30T00:58:30;100619.06;;;14.81;83.00
71805;BME280;59654;52.216;5.616;2023-07-30T00:59:02;100620.97;;;14.79;82.87
71805;BME280;59654;52.216;5.616;2023-07-30T00:59:34;100624.59;;;14.78;83.35
71805;BME280;59654;52.216;5.616;2023-07-30T01:00:05;100615.94;;;14.73;83.78
71805;BME280;59654;52.216;5.616;2023-07-30T01:00:40;100610.41;;;14.76;83.41
71805;BME280;59654;52.216;5.616;2023-07-30T01:01:11;100621.31;;;14.73;83.90
71805;BME280;59654;52.216;5.616;2023-07-30T01:01:46;100621.31;;;14.73;83.22
71805;BME280;59654;52.216;5.616;2023-07-30T01:02:17;100619.59;;;14.72;84.09
71805;BME280;59654;52.216;5.616;2023-07-30T01:02:49;100622.38;;;14.70;83.51
71805;BME280;59654;52.216;5.616;2023-07-30T01:03:19;100616.81;;;14.73;83.90
71805;BME280;59654;52.216;5.616;2023-07-30T01:03:50;100615.00;;;14.74;83.44
71805;BME280;59654;52.216;5.616;2023-07-30T01:04:21;100615.88;;;14.74;83.42
71805;BME280;59654;52.216;5.616;2023-07-30T01:04:52;100615.78;;;14.76;84.09
71805;BME280;59654;52.216;5.616;2023-07-30T01:05:24;100618.56;;;14.74;83.65
71805;BME280;59654;52.216;5.616;2023-07-30T01:05:56;100620.47;;;14.72;83.49
71805;BME280;59654;52.216;5.616;2023-07-30T01:06:26;100615.28;;;14.69;83.89
71805;BME280;59654;52.216;5.616;2023-07-30T01:06:57;100622.38;;;14.70;83.34
71805;BME280;59654;52.216;5.616;2023-07-30T01:07:29;100619.81;;;14.69;83.42
71805;BME280;59654;52.216;5.616;2023-07-30T01:08:00;100617.19;;;14.67;84.23
71805;BME280;59654;52.216;5.616;2023-07-30T01:08:31;100608.50;;;14.62;83.63
71805;BME280;59654;52.216;5.616;2023-07-30T01:09:01;100619.34;;;14.61;84.68
71805;BME280;59654;52.216;5.616;2023-07-30T01:09:34;100616.03;;;14.56;84.17
71805;BME280;59654;52.216;5.616;2023-07-30T01:10:05;100615.88;;;14.59;84.90
71805;BME280;59654;52.216;5.616;2023-07-30T01:10:38;100618.56;;;14.59;84.53
71805;BME280;59654;52.216;5.616;2023-07-30T01:11:11;100621.31;;;14.57;84.87
71805;BME280;59654;52.216;5.616;2023-07-30T01:11:43;100614.53;;;14.52;85.07
71805;BME280;59654;52.216;5.616;2023-07-30T01:12:14;100620.63;;;14.54;84.72
71805;BME280;59654;52.216;5.616;2023-07-30T01:12:47;100627.84;;;14.53;85.27
71805;BME280;59654;52.216;5.616;2023-07-30T01:13:19;100623.53;;;14.51;85.25
71805;BME280;59654;52.216;5.616;2023-07-30T01:13:50;100620.84;;;14.51;84.60
71805;BME280;59654;52.216;5.616;2023-07-30T01:14:22;100623.00;;;14.44;84.94
71805;BME280;59654;52.216;5.616;2023-07-30T01:14:55;100615.72;;;14.46;85.46
71805;BME280;59654;52.216;5.616;2023-07-30T01:15:27;100614.94;;;14.44;84.96
71805;BME280;59654;52.216;5.616;2023-07-30T01:15:59;100622.75;;;14.48;85.43
71805;BME280;59654;52.216;5.616;2023-07-30T01:16:30;100625.00;;;14.40;85.00
71805;BME280;59654;52.216;5.616;2023-07-30T01:17:02;100618.66;;;14.41;85.71
71805;BME280;59654;52.216;5.616;2023-07-30T01:17:33;100627.09;;;14.35;85.46
71805;BME280;59654;52.216;5.616;2023-07-30T01:18:04;100625.16;;;14.37;85.43
71805;BME280;59654;52.216;5.616;2023-07-30T01:18:35;100633.22;;;14.37;85.45
71805;BME280;59654;52.216;5.616;2023-07-30T01:19:06;100625.28;;;14.36;85.85
71805;BME280;59654;52.216;5.616;2023-07-30T01:19:37;100629.56;;;14.38;86.33
71805;BME280;59654;52.216;5.616;2023-07-30T01:20:08;100634.34;;;14.33;85.74
71805;BME280;59654;52.216;5.616;2023-07-30T01:20:41;100629.16;;;14.30;86.04
71805;BME280;59654;52.216;5.616;2023-07-30T01:21:11;100632.47;;;14.35;86.42
71805;BME280;59654;52.216;5.616;2023-07-30T01:21:42;100627.84;;;14.37;86.12
71805;BME280;59654;52.216;5.616;2023-07-30T01:22:13;100633.13;;;14.39;86.74
71805;BME280;59654;52.216;5.616;2023-07-30T01:22:44;100629.41;;;14.41;86.89
71805;BME280;59654;52.216;5.616;2023-07-30T01:23:15;100628.72;;;14.38;85.90
71805;BME280;59654;52.216;5.616;2023-07-30T01:23:45;100631.31;;;14.39;86.58
71805;BME280;59654;52.216;5.616;2023-07-30T01:24:16;100634.75;;;14.41;86.22
71805;BME280;59654;52.216;5.616;2023-07-30T01:24:48;100627.50;;;14.43;86.74
71805;BME280;59654;52.216;5.616;2023-07-30T01:25:24;100631.22;;;14.41;86.01
71805;BME280;59654;52.216;5.616;2023-07-30T01:26:08;100627.09;;;14.35;86.68
71805;BME280;59654;52.216;5.616;2023-07-30T01:26:46;100631.59;;;14.35;86.52
71805;BME280;59654;52.216;5.616;2023-07-30T01:27:36;100632.53;;;14.34;86.38
71805;BME280;59654;52.216;5.616;2023-07-30T01:28:16;100629.00;;;14.33;87.35
71805;BME280;59654;52.216;5.616;2023-07-30T01:28:54;100629.00;;;14.33;86.43
71805;BME280;59654;52.216;5.616;2023-07-30T01:30:17;100626.13;;;14.36;87.52
71805;BME280;59654;52.216;5.616;2023-07-30T01:30:49;100632.38;;;14.37;87.14
71805;BME280;59654;52.216;5.616;2023-07-30T01:31:25;100632.25;;;14.38;87.63
71805;BME280;59654;52.216;5.616;2023-07-30T01:32:04;100633.91;;;14.41;87.18
71805;BME280;59654;52.216;5.616;2023-07-30T01:32:36;100633.03;;;14.40;86.76
71805;BME280;59654;52.216;5.616;2023-07-30T01:33:10;100632.47;;;14.35;86.47
71805;BME280;59654;52.216;5.616;2023-07-30T01:33:45;100630.63;;;14.36;86.91
71805;BME280;59654;52.216;5.616;2023-07-30T01:34:18;100626.03;;;14.38;86.41
71805;BME280;59654;52.216;5.616;2023-07-30T01:34:53;100635.81;;;14.39;87.50
71805;BME280;59654;52.216;5.616;2023-07-30T01:35:28;100643.75;;;14.40;87.23
71805;BME280;59654;52.216;5.616;2023-07-30T01:36:01;100639.63;;;14.35;86.61
71805;BME280;59654;52.216;5.616;2023-07-30T01:36:32;100636.09;;;14.34;87.63
71805;BME280;59654;52.216;5.616;2023-07-30T01:37:10;100636.00;;;14.36;87.06
71805;BME280;59654;52.216;5.616;2023-07-30T01:37:44;100642.97;;;14.38;87.34
71805;BME280;59654;52.216;5.616;2023-07-30T01:38:16;100639.44;;;14.38;87.41
71805;BME280;59654;52.216;5.616;2023-07-30T01:38:49;100641.16;;;14.39;86.98
71805;BME280;59654;52.216;5.616;2023-07-30T01:39:22;100636.66;;;14.39;86.96
71805;BME280;59654;52.216;5.616;2023-07-30T01:39:54;100642.81;;;14.41;87.52
71805;BME280;59654;52.216;5.616;2023-07-30T01:40:26;100639.19;;;14.42;87.59
71805;BME280;59654;52.216;5.616;2023-07-30T01:40:56;100641.88;;;14.42;87.13
71805;BME280;59654;52.216;5.616;2023-07-30T01:41:28;100638.31;;;14.42;86.61
71805;BME280;59654;52.216;5.616;2023-07-30T01:41:59;100639.19;;;14.42;87.14
71805;BME280;59654;52.216;5.616;2023-07-30T01:42:30;100643.69;;;14.42;86.35
71805;BME280;59654;52.216;5.616;2023-07-30T01:43:01;100636.75;;;14.38;87.45
71805;BME280;59654;52.216;5.616;2023-07-30T01:43:32;100645.50;;;14.41;87.11
71805;BME280;59654;52.216;5.616;2023-07-30T01:44:03;100648.09;;;14.43;87.63
71805;BME280;59654;52.216;5.616;2023-07-30T01:44:34;100640.22;;;14.40;87.41
71805;BME280;59654;52.216;5.616;2023-07-30T01:45:05;100640.91;;;14.43;86.63
71805;BME280;59654;52.216;5.616;2023-07-30T01:45:37;100640.91;;;14.43;86.90
71805;BME280;59654;52.216;5.616;2023-07-30T01:46:09;100641.78;;;14.44;88.19
71805;BME280;59654;52.216;5.616;2023-07-30T01:46:39;100639.97;;;14.44;88.02
71805;BME280;59654;52.216;5.616;2023-07-30T01:47:10;100643.75;;;14.40;87.49
71805;BME280;59654;52.216;5.616;2023-07-30T01:47:41;100639.25;;;14.41;87.90
71805;BME280;59654;52.216;5.616;2023-07-30T01:48:12;100647.31;;;14.41;87.40
71805;BME280;59654;52.216;5.616;2023-07-30T01:48:43;100641.25;;;14.37;87.70
71805;BME280;59654;52.216;5.616;2023-07-30T01:49:13;100640.03;;;14.43;87.79
71805;BME280;59654;52.216;5.616;2023-07-30T01:49:44;100641.09;;;14.40;87.77
71805;BME280;59654;52.216;5.616;2023-07-30T01:50:15;100646.38;;;14.42;87.32
71805;BME280;59654;52.216;5.616;2023-07-30T01:50:46;100644.72;;;14.39;87.92
71805;BME280;59654;52.216;5.616;2023-07-30T01:51:19;100646.13;;;14.31;88.43
71805;BME280;59654;52.216;5.616;2023-07-30T01:51:50;100649.91;;;14.27;88.18
71805;BME280;59654;52.216;5.616;2023-07-30T01:52:20;100647.00;;;14.31;88.36
71805;BME280;59654;52.216;5.616;2023-07-30T01:52:51;100642.50;;;14.32;88.56
71805;BME280;59654;52.216;5.616;2023-07-30T01:53:22;100644.22;;;14.33;88.07
71805;BME280;59654;52.216;5.616;2023-07-30T01:53:53;100645.88;;;14.35;87.35
71805;BME280;59654;52.216;5.616;2023-07-30T01:54:24;100639.72;;;14.33;88.67
71805;BME280;59654;52.216;5.616;2023-07-30T01:54:55;100645.00;;;14.35;88.24
71805;BME280;59654;52.216;5.616;2023-07-30T01:55:31;100650.28;;;14.36;87.96
71805;BME280;59654;52.216;5.616;2023-07-30T01:56:02;100642.13;;;14.38;87.86
71805;BME280;59654;52.216;5.616;2023-07-30T01:56:32;100646.81;;;14.34;88.74
71805;BME280;59654;52.216;5.616;2023-07-30T01:57:03;100642.25;;;14.36;88.99
71805;BME280;59654;52.216;5.616;2023-07-30T01:57:34;100647.47;;;14.38;88.15
71805;BME280;59654;52.216;5.616;2023-07-30T01:58:05;100640.41;;;14.37;88.26
71805;BME280;59654;52.216;5.616;2023-07-30T01:58:36;100644.22;;;14.33;87.99
71805;BME280;59654;52.216;5.616;2023-07-30T01:59:07;100639.56;;;14.36;88.49
71805;BME280;59654;52.216;5.616;2023-07-30T01:59:37;100636.25;;;14.31;88.92
71805;BME280;59654;52.216;5.616;2023-07-30T02:00:09;100643.53;;;14.29;89.27
71805;BME280;59654;52.216;5.616;2023-07-30T02:00:40;100643.69;;;14.26;88.92
71805;BME280;59654;52.216;5.616;2023-07-30T02:01:11;100640.22;;;14.24;88.58
71805;BME280;59654;52.216;5.616;2023-07-30T02:01:43;100639.44;;;14.22;88.83
71805;BME280;59654;52.216;5.616;2023-07-30T02:02:14;100639.56;;;14.21;88.78
71805;BME280;59654;52.216;5.616;2023-07-30T02:02:44;100642.75;;;14.27;89.02
71805;BME280;59654;52.216;5.616;2023-07-30T02:03:15;100646.13;;;14.31;88.70
71805;BME280;59654;52.216;5.616;2023-07-30T02:03:46;100642.91;;;14.24;89.09
71805;BME280;59654;52.216;5.616;2023-07-30T02:04:17;100639.91;;;14.30;88.32
71805;BME280;59654;52.216;5.616;2023-07-30T02:04:48;100638.84;;;14.33;88.55
71805;BME280;59654;52.216;5.616;2023-07-30T02:05:19;100637.13;;;14.32;89.41
71805;BME280;59654;52.216;5.616;2023-07-30T02:05:50;100644.47;;;14.28;89.83
71805;BME280;59654;52.216;5.616;2023-07-30T02:06:20;100641.19;;;14.23;89.32
71805;BME280;59654;52.216;5.616;2023-07-30T02:06:51;100641.38;;;14.20;89.75
71805;BME280;59654;52.216;5.616;2023-07-30T02:07:22;100639.72;;;14.18;89.92
71805;BME280;59654;52.216;5.616;2023-07-30T02:07:53;100638.09;;;14.15;89.43
71805;BME280;59654;52.216;5.616;2023-07-30T02:08:23;100643.19;;;14.20;89.45
71805;BME280;59654;52.216;5.616;2023-07-30T02:08:54;100643.19;;;14.20;90.45
71805;BME280;59654;52.216;5.616;2023-07-30T02:09:25;100645.59;;;14.24;89.35
71805;BME280;59654;52.216;5.616;2023-07-30T02:09:56;100647.69;;;14.19;89.67
71805;BME280;59654;52.216;5.616;2023-07-30T02:10:27;100648.88;;;14.13;90.05
71805;BME280;59654;52.216;5.616;2023-07-30T02:10:58;100643.28;;;14.18;90.53
71805;BME280;59654;52.216;5.616;2023-07-30T02:11:29;100641.72;;;14.14;90.39
71805;BME280;59654;52.216;5.616;2023-07-30T02:12:00;100642.31;;;14.19;90.68
71805;BME280;59654;52.216;5.616;2023-07-30T02:12:31;100646.75;;;14.20;89.80
71805;BME280;59654;52.216;5.616;2023-07-30T02:13:02;100649.22;;;14.23;89.96
71805;BME280;59654;52.216;5.616;2023-07-30T02:13:33;100646.47;;;14.25;90.44
71805;BME280;59654;52.216;5.616;2023-07-30T02:14:04;100647.25;;;14.27;89.39
71805;BME280;59654;52.216;5.616;2023-07-30T02:14:34;100645.59;;;14.24;89.81
71805;BME280;59654;52.216;5.616;2023-07-30T02:15:06;100650.78;;;14.27;89.10
71805;BME280;59654;52.216;5.616;2023-07-30T02:15:40;100650.09;;;14.24;89.84
71805;BME280;59654;52.216;5.616;2023-07-30T02:16:12;100647.06;;;14.30;89.26
71805;BME280;59654;52.216;5.616;2023-07-30T02:16:43;100650.63;;;14.30;90.10
71805;BME280;59654;52.216;5.616;2023-07-30T02:17:14;100647.06;;;14.30;89.86
71805;BME280;59654;52.216;5.616;2023-07-30T02:17:46;100648.81;;;14.31;89.70
71805;BME280;59654;52.216;5.616;2023-07-30T02:18:17;100647.00;;;14.31;89.72
71805;BME280;59654;52.216;5.616;2023-07-30T02:18:47;100647.78;;;14.33;90.24
71805;BME280;59654;52.216;5.616;2023-07-30T02:19:19;100655.28;;;14.27;90.73
71805;BME280;59654;52.216;5.616;2023-07-30T02:19:49;100646.53;;;14.23;90.57
71805;BME280;59654;52.216;5.616;2023-07-30T02:20:21;100646.47;;;14.25;89.93
71805;BME280;59654;52.216;5.616;2023-07-30T02:20:52;100647.16;;;14.28;90.12
71805;BME280;59654;52.216;5.616;2023-07-30T02:21:23;100649.22;;;14.23;90.13
71805;BME280;59654;52.216;5.616;2023-07-30T02:21:54;100649.22;;;14.23;89.83
71805;BME280;59654;52.216;5.616;2023-07-30T02:22:24;100645.59;;;14.24;90.96
71805;BME280;59654;52.216;5.616;2023-07-30T02:22:55;100655.28;;;14.27;90.70
71805;BME280;59654;52.216;5.616;2023-07-30T02:23:26;100646.28;;;14.28;90.11
71805;BME280;59654;52.216;5.616;2023-07-30T02:24:01;100653.63;;;14.24;90.21
71805;BME280;59654;52.216;5.616;2023-07-30T02:24:32;100650.69;;;14.29;90.72
71805;BME280;59654;52.216;5.616;2023-07-30T02:25:02;100647.06;;;14.30;89.76
71805;BME280;59654;52.216;5.616;2023-07-30T02:25:34;100643.78;;;14.25;90.86
71805;BME280;59654;52.216;5.616;2023-07-30T02:26:05;100643.53;;;14.29;90.58
71805;BME280;59654;52.216;5.616;2023-07-30T02:26:36;100646.22;;;14.29;90.52
71805;BME280;59654;52.216;5.616;2023-07-30T02:27:06;100646.13;;;14.31;90.44
71805;BME280;59654;52.216;5.616;2023-07-30T02:27:37;100652.59;;;14.27;90.27
71805;BME280;59654;52.216;5.616;2023-07-30T02:28:09;100645.34;;;14.29;90.37
71805;BME280;59654;52.216;5.616;2023-07-30T02:28:41;100643.59;;;14.28;90.26
71805;BME280;59654;52.216;5.616;2023-07-30T02:29:11;100652.44;;;14.30;90.97
71805;BME280;59654;52.216;5.616;2023-07-30T02:29:42;100646.28;;;14.28;91.03
71805;BME280;59654;52.216;5.616;2023-07-30T02:30:13;100642.56;;;14.30;90.97
71805;BME280;59654;52.216;5.616;2023-07-30T02:30:45;100641.78;;;14.28;91.16
71805;BME280;59654;52.216;5.616;2023-07-30T02:31:16;100648.09;;;14.27;90.78
71805;BME280;59654;52.216;5.616;2023-07-30T02:31:47;100642.41;;;14.33;90.39
71805;BME280;59654;52.216;5.616;2023-07-30T02:32:17;100641.44;;;14.34;90.25
71805;BME280;59654;52.216;5.616;2023-07-30T02:32:48;100639.63;;;14.35;90.83
71805;BME280;59654;52.216;5.616;2023-07-30T02:33:19;100634.53;;;14.30;91.09
71805;BME280;59654;52.216;5.616;2023-07-30T02:33:50;100637.22;;;14.30;90.19
71805;BME280;59654;52.216;5.616;2023-07-30T02:34:21;100636.69;;;14.24;91.16
71805;BME280;59654;52.216;5.616;2023-07-30T02:34:52;100639.38;;;14.24;91.58
71805;BME280;59654;52.216;5.616;2023-07-30T02:35:23;100635.47;;;14.29;91.81
71805;BME280;59654;52.216;5.616;2023-07-30T02:35:54;100636.34;;;14.30;90.57
71805;BME280;59654;52.216;5.616;2023-07-30T02:36:25;100637.28;;;14.29;91.13
71805;BME280;59654;52.216;5.616;2023-07-30T02:36:55;100643.59;;;14.28;90.95
71805;BME280;59654;52.216;5.616;2023-07-30T02:37:26;100639.72;;;14.33;91.37
71805;BME280;59654;52.216;5.616;2023-07-30T02:37:57;100636.97;;;14.35;90.87
71805;BME280;59654;52.216;5.616;2023-07-30T02:38:28;100639.72;;;14.33;90.84
71805;BME280;59654;52.216;5.616;2023-07-30T02:38:59;100639.97;;;14.29;90.32
71805;BME280;59654;52.216;5.616;2023-07-30T02:39:29;100640.84;;;14.29;91.53
71805;BME280;59654;52.216;5.616;2023-07-30T02:40:01;100640.84;;;14.29;90.69
71805;BME280;59654;52.216;5.616;2023-07-30T02:40:35;100627.34;;;14.31;91.13
71805;BME280;59654;52.216;5.616;2023-07-30T02:41:05;100633.41;;;14.34;90.79
71805;BME280;59654;52.216;5.616;2023-07-30T02:41:36;100638.69;;;14.36;91.08
71805;BME280;59654;52.216;5.616;2023-07-30T02:42:07;100636.09;;;14.34;90.92
71805;BME280;59654;52.216;5.616;2023-07-30T02:42:38;100638.16;;;14.29;91.01
71805;BME280;59654;52.216;5.616;2023-07-30T02:43:08;100631.41;;;14.22;91.90
71805;BME280;59654;52.216;5.616;2023-07-30T02:43:39;100632.56;;;14.18;91.81
71805;BME280;59654;52.216;5.616;2023-07-30T02:44:10;100634.78;;;14.26;91.23
71805;BME280;59654;52.216;5.616;2023-07-30T02:44:41;100628.31;;;14.30;91.37
71805;BME280;59654;52.216;5.616;2023-07-30T02:45:11;100636.75;;;14.22;91.41
71805;BME280;59654;52.216;5.616;2023-07-30T02:45:42;100634.44;;;14.16;91.31